Time;durP1;ratioP1;P1;durP2;ratioP2;P2;SDS_P1;SDS_P2;PMS_P1;PMS_P2;Temp;Humidity;BMP_temperature;BMP_pressure;BME280_temperature;BME280_humidity;BME280_pressure;Samples;Min_cycle;Max_cycle;Signal;HPM_P1;HPM_P2
2022/06/06 00:01:47;;;;;;;3.00;2.70;;;20.80;61.60;;;;;;5024227;28;20053;-49
2022/06/06 00:04:15;;;;;;;7.13;3.45;;;20.80;61.40;;;;;;5031622;28;20053;-46
2022/06/06 00:06:43;;;;;;;3.15;2.85;;;20.80;61.40;;;;;;5024409;28;20045;-50
2022/06/06 00:09:13;;;;;;;4.03;2.90;;;20.80;61.30;;;;;;5024357;28;20053;-50
2022/06/06 00:11:40;;;;;;;3.25;2.90;;;20.80;61.40;;;;;;5022471;28;20147;-51
2022/06/06 00:14:09;;;;;;;4.90;3.70;;;20.70;61.30;;;;;;5022647;28;20060;-48
2022/06/06 00:16:37;;;;;;;4.28;3.65;;;20.70;61.40;;;;;;5024393;28;20057;-49
2022/06/06 00:19:06;;;;;;;5.32;3.25;;;20.70;61.50;;;;;;5024969;28;20056;-49
2022/06/06 00:21:35;;;;;;;6.72;4.25;;;20.70;61.60;;;;;;5026898;28;20583;-47
2022/06/06 00:24:03;;;;;;;9.52;3.97;;;20.70;61.50;;;;;;5027834;28;20064;-49
2022/06/06 00:36:48;;;;;;;6.65;4.57;;;20.50;62.20;;;;;;5035351;28;20041;-48
2022/06/06 00:39:18;;;;;;;5.95;4.30;;;20.50;62.00;;;;;;5042395;28;20053;-51
2022/06/06 00:41:47;;;;;;;6.15;4.43;;;20.50;62.10;;;;;;5043270;28;20056;-50
2022/06/06 00:44:17;;;;;;;8.05;5.18;;;20.50;62.10;;;;;;5039615;28;20592;-52
2022/06/06 00:46:48;;;;;;;11.48;5.30;;;20.40;61.90;;;;;;5039529;28;20575;-54
2022/06/06 00:49:23;;;;;;;7.40;5.68;;;20.40;61.80;;;;;;5041893;28;20052;-47
2022/06/06 00:51:53;;;;;;;10.98;5.85;;;20.40;61.80;;;;;;5039752;28;20389;-47
2022/06/06 00:54:22;;;;;;;9.45;6.93;;;20.40;61.80;;;;;;5043555;28;20504;-49
2022/06/06 00:56:53;;;;;;;11.68;6.00;;;20.30;61.70;;;;;;5042141;28;20052;-47
2022/06/06 00:59:24;;;;;;;10.80;6.95;;;20.30;61.60;;;;;;5027968;28;20484;-49
2022/06/06 01:01:52;;;;;;;9.65;6.70;;;20.30;61.60;;;;;;5022814;28;20403;-55
2022/06/06 01:04:22;;;;;;;11.10;7.63;;;20.20;61.40;;;;;;5024473;28;20503;-52
2022/06/06 01:06:49;;;;;;;9.20;6.88;;;20.20;61.30;;;;;;5024514;28;20053;-55
2022/06/06 01:09:21;;;;;;;11.77;7.70;;;20.20;61.30;;;;;;5020866;28;20056;-52
2022/06/06 01:11:55;;;;;;;15.98;8.10;;;20.10;61.20;;;;;;5021031;28;20058;-52
2022/06/06 01:14:28;;;;;;;11.43;7.65;;;20.10;61.30;;;;;;5021104;28;20061;-51
2022/06/06 01:17:02;;;;;;;12.68;6.57;;;20.10;61.20;;;;;;5026169;28;20668;-49
2022/06/06 01:20:03;;;;;;;12.98;7.38;;;20.10;61.10;;;;;;5025983;28;20061;-51
2022/06/06 01:22:56;;;;;;;10.55;7.18;;;20.10;61.10;;;;;;5020247;28;20053;-50
2022/06/06 01:25:54;;;;;;;11.35;7.25;;;20.10;61.00;;;;;;4985386;28;20053;-51
2022/06/06 01:28:46;;;;;;;11.80;7.47;;;20.00;60.90;;;;;;4994931;28;20575;-52
2022/06/06 01:31:19;;;;;;;12.77;8.00;;;20.00;60.80;;;;;;5009946;28;20050;-47
2022/06/06 01:33:53;;;;;;;12.02;7.95;;;20.00;60.60;;;;;;5021343;28;20062;-50
2022/06/06 01:36:21;;;;;;;10.90;7.07;;;20.00;60.60;;;;;;5020435;28;20045;-53
2022/06/06 01:38:49;;;;;;;12.20;8.00;;;20.00;60.60;;;;;;5014754;28;20052;-50
2022/06/06 01:41:25;;;;;;;13.02;8.25;;;20.00;60.60;;;;;;5020218;28;20057;-53
2022/06/06 01:43:59;;;;;;;14.43;8.30;;;20.00;60.40;;;;;;5019760;28;20053;-49
2022/06/06 01:46:30;;;;;;;10.55;7.20;;;20.00;60.30;;;;;;5020086;28;20058;-50
2022/06/06 01:48:59;;;;;;;10.50;6.95;;;20.00;60.20;;;;;;5022093;28;20057;-48
2022/06/06 01:51:28;;;;;;;15.70;7.57;;;20.00;60.10;;;;;;5018638;28;20064;-53
2022/06/06 01:53:57;;;;;;;10.27;7.05;;;19.90;59.90;;;;;;5023568;28;20064;-50
2022/06/06 01:56:27;;;;;;;11.43;7.05;;;19.90;59.80;;;;;;5023106;28;20070;-51
2022/06/06 01:58:57;;;;;;;8.63;6.00;;;19.90;59.80;;;;;;5021190;28;20053;-52
2022/06/06 02:01:25;;;;;;;9.02;6.38;;;20.00;59.80;;;;;;5017535;28;20049;-50
2022/06/06 02:03:53;;;;;;;9.57;6.40;;;19.90;59.70;;;;;;5001170;28;20061;-51
2022/06/06 02:06:21;;;;;;;10.48;6.75;;;19.90;60.20;;;;;;5020402;28;20595;-47
2022/06/06 02:08:50;;;;;;;10.07;6.28;;;19.90;59.50;;;;;;5021831;28;20057;-48
2022/06/06 02:11:19;;;;;;;11.55;6.72;;;19.90;59.50;;;;;;5019529;28;20409;-52
2022/06/06 02:13:46;;;;;;;10.00;6.20;;;19.90;59.40;;;;;;5022897;28;20057;-51
2022/06/06 02:16:16;;;;;;;9.45;6.00;;;19.90;59.30;;;;;;5021719;28;20061;-53
2022/06/06 02:18:43;;;;;;;7.57;5.63;;;19.90;59.50;;;;;;5019955;28;20086;-49
2022/06/06 02:21:11;;;;;;;9.65;6.03;;;19.90;59.40;;;;;;5017738;28;20064;-50
2022/06/06 02:23:38;;;;;;;9.43;6.68;;;19.90;59.40;;;;;;5028884;28;20057;-53
2022/06/06 02:26:05;;;;;;;6.97;5.50;;;19.90;59.40;;;;;;5041611;28;20460;-51
2022/06/06 02:28:33;;;;;;;7.88;5.70;;;19.90;59.40;;;;;;5039717;28;20057;-53
2022/06/06 02:31:00;;;;;;;13.70;5.80;;;19.90;59.40;;;;;;5037510;28;20071;-48
2022/06/06 02:33:29;;;;;;;10.25;5.65;;;19.90;59.50;;;;;;5038186;28;20048;-51
2022/06/06 02:35:59;;;;;;;8.07;5.90;;;19.90;59.50;;;;;;5037096;28;20413;-48
2022/06/06 02:38:27;;;;;;;7.35;5.43;;;19.90;59.50;;;;;;5037489;28;20051;-52
2022/06/06 02:40:55;;;;;;;9.02;5.60;;;19.90;59.60;;;;;;5031188;28;20045;-48
2022/06/06 02:43:22;;;;;;;7.10;5.30;;;19.80;59.50;;;;;;5036194;28;20518;-48
2022/06/06 02:45:50;;;;;;;8.02;5.45;;;19.90;59.50;;;;;;5038823;28;20052;-50
2022/06/06 02:48:17;;;;;;;6.75;5.28;;;19.80;59.30;;;;;;5039562;28;20041;-49
2022/06/06 02:50:46;;;;;;;8.02;5.53;;;19.80;59.30;;;;;;5038053;28;20057;-50
2022/06/06 02:53:14;;;;;;;7.35;5.03;;;19.80;59.20;;;;;;5041234;28;20065;-49
2022/06/06 02:55:41;;;;;;;15.13;6.35;;;19.80;59.20;;;;;;5041996;28;20053;-48
2022/06/06 02:58:09;;;;;;;9.10;5.78;;;19.70;59.10;;;;;;5041360;28;20049;-51
2022/06/06 03:00:42;;;;;;;11.30;6.20;;;19.70;59.10;;;;;;5037766;28;20048;-47
2022/06/06 03:03:10;;;;;;;8.50;5.60;;;19.70;59.10;;;;;;5036215;28;20060;-51
2022/06/06 03:05:54;;;;;;;7.75;5.38;;;19.60;59.10;;;;;;5040793;28;20052;-50
2022/06/06 03:08:40;;;;;;;8.13;5.80;;;19.60;59.20;;;;;;5041807;28;20048;-50
2022/06/06 03:11:17;;;;;;;7.00;5.28;;;19.60;59.20;;;;;;5037631;28;20057;-49
2022/06/06 03:14:13;;;;;;;7.75;5.47;;;19.60;59.20;;;;;;5039484;28;20056;-52
2022/06/06 03:23:14;;;;;;;11.65;5.03;;;19.50;58.70;;;;;;4980799;28;20053;-47
2022/06/06 03:25:47;;;;;;;7.13;4.47;;;19.40;58.40;;;;;;5031144;28;20064;-51
2022/06/06 03:28:26;;;;;;;6.75;4.53;;;19.30;58.30;;;;;;5041551;28;20062;-53
2022/06/06 03:31:04;;;;;;;6.07;4.70;;;19.30;58.40;;;;;;5037235;28;20060;-50
2022/06/06 03:33:41;;;;;;;7.00;4.55;;;19.30;58.40;;;;;;5041349;28;20488;-52
2022/06/06 03:36:17;;;;;;;6.53;4.60;;;19.20;58.30;;;;;;5038679;28;20060;-48
2022/06/06 03:38:55;;;;;;;7.43;5.05;;;19.20;58.40;;;;;;5041332;28;20500;-50
2022/06/06 03:41:30;;;;;;;6.50;4.85;;;19.20;58.50;;;;;;5034808;28;20053;-51
2022/06/06 03:44:07;;;;;;;6.57;4.68;;;19.20;58.70;;;;;;5038341;28;20512;-48
2022/06/06 03:46:46;;;;;;;8.68;5.25;;;19.10;58.80;;;;;;5039279;28;20060;-49
2022/06/06 03:49:19;;;;;;;7.28;5.10;;;19.10;58.90;;;;;;5037107;28;20056;-50
2022/06/06 03:51:59;;;;;;;7.45;5.38;;;19.10;58.80;;;;;;5034303;28;20060;-50
2022/06/06 03:54:38;;;;;;;6.15;4.45;;;19.10;58.80;;;;;;5040142;28;20420;-50
2022/06/06 03:57:14;;;;;;;6.53;4.80;;;19.10;58.90;;;;;;5040144;28;20053;-51
2022/06/06 03:59:44;;;;;;;6.50;4.22;;;19.10;59.00;;;;;;5040985;28;20076;-51
2022/06/06 04:02:15;;;;;;;7.90;5.00;;;19.20;59.20;;;;;;5037067;28;20053;-55
2022/06/06 04:04:43;;;;;;;6.72;4.72;;;19.10;59.40;;;;;;5037697;28;20413;-51
2022/06/06 04:07:11;;;;;;;5.50;4.20;;;19.20;59.60;;;;;;5041560;28;20064;-54
2022/06/06 04:09:40;;;;;;;6.32;4.55;;;19.20;59.70;;;;;;5040370;28;20049;-51
2022/06/06 04:12:26;;;;;;;8.73;4.55;;;19.20;59.90;;;;;;5039044;28;20093;-51
2022/06/06 04:15:03;;;;;;;7.35;4.80;;;19.20;60.00;;;;;;5039697;28;20061;-53
2022/06/06 04:17:41;;;;;;;5.40;3.97;;;19.20;60.00;;;;;;5032101;28;20495;-49
2022/06/06 04:20:23;;;;;;;5.43;4.18;;;19.30;60.00;;;;;;5035240;28;20053;-50
2022/06/06 04:23:11;;;;;;;6.18;4.22;;;19.30;60.10;;;;;;5039432;28;20053;-49
2022/06/06 04:25:50;;;;;;;5.65;4.47;;;19.30;60.00;;;;;;5041090;28;20064;-50
2022/06/06 04:28:28;;;;;;;4.93;3.75;;;19.30;59.90;;;;;;5039291;28;20044;-50
2022/06/06 04:31:09;;;;;;;6.18;4.15;;;19.30;60.00;;;;;;5034754;28;20408;-51
2022/06/06 04:33:43;;;;;;;4.95;3.80;;;19.30;60.10;;;;;;5039979;28;20092;-51
2022/06/06 04:36:15;;;;;;;6.37;4.47;;;19.40;60.20;;;;;;5041027;28;20056;-47
2022/06/06 04:38:49;;;;;;;7.88;4.13;;;19.30;60.10;;;;;;5041457;28;20064;-51
2022/06/06 04:41:27;;;;;;;6.57;4.15;;;19.40;60.40;;;;;;5039915;28;20045;-51
2022/06/06 04:44:01;;;;;;;6.32;4.40;;;19.40;60.50;;;;;;5038705;28;20053;-51
2022/06/06 04:46:37;;;;;;;4.90;3.72;;;19.50;60.80;;;;;;5039116;28;20061;-55
2022/06/06 04:49:06;;;;;;;5.90;3.65;;;19.50;60.80;;;;;;5042392;28;20068;-50
2022/06/06 04:51:35;;;;;;;8.20;4.30;;;19.50;60.50;;;;;;5039657;28;20052;-51
2022/06/06 04:54:04;;;;;;;8.38;4.25;;;19.60;60.40;;;;;;5040601;28;20056;-52
2022/06/06 04:56:34;;;;;;;5.18;3.80;;;19.60;60.30;;;;;;5040948;28;20060;-50
2022/06/06 04:59:03;;;;;;;5.57;4.20;;;19.60;59.90;;;;;;5040881;28;20060;-49
2022/06/06 05:01:33;;;;;;;6.50;3.92;;;19.60;59.70;;;;;;5040139;28;20057;-50
2022/06/06 05:04:01;;;;;;;6.45;4.50;;;19.60;59.50;;;;;;5041042;28;20053;-49
2022/06/06 05:06:43;;;;;;;6.03;4.25;;;19.70;59.50;;;;;;5039706;28;20056;-50
2022/06/06 05:09:39;;;;;;;6.22;4.20;;;19.70;59.50;;;;;;5039986;28;20960;-52
2022/06/06 05:12:24;;;;;;;5.75;4.32;;;19.70;59.40;;;;;;5035146;28;20045;-49
2022/06/06 05:15:17;;;;;;;8.05;4.25;;;19.80;59.10;;;;;;5040975;28;20497;-50
2022/06/06 05:18:02;;;;;;;4.47;3.60;;;19.80;59.00;;;;;;5042824;28;20554;-53
2022/06/06 05:20:56;;;;;;;4.55;4.10;;;19.80;59.10;;;;;;5030989;28;20382;-53
2022/06/06 05:23:52;;;;;;;5.47;4.07;;;19.80;59.10;;;;;;5041314;28;20067;-51
2022/06/06 05:26:45;;;;;;;4.55;3.65;;;19.80;59.10;;;;;;5033690;28;20061;-47
2022/06/06 05:29:54;;;;;;;4.78;3.70;;;19.80;59.20;;;;;;5040911;28;21140;-50
2022/06/06 05:32:49;;;;;;;5.82;4.10;;;19.80;59.20;;;;;;5041468;28;20053;-52
2022/06/06 05:35:29;;;;;;;4.93;3.78;;;19.80;59.00;;;;;;5039354;28;20056;-52
2022/06/06 05:38:09;;;;;;;7.45;3.92;;;19.80;59.10;;;;;;5038794;28;20052;-48
2022/06/06 05:40:39;;;;;;;5.80;3.75;;;19.80;59.00;;;;;;5040309;28;20504;-51
2022/06/06 05:43:31;;;;;;;5.22;4.30;;;19.90;59.30;;;;;;5039385;28;20056;-49
2022/06/06 05:46:13;;;;;;;6.82;4.20;;;19.90;59.20;;;;;;5028246;28;20055;-51
2022/06/06 05:49:04;;;;;;;6.60;4.03;;;19.90;58.80;;;;;;5040811;28;20052;-51
2022/06/06 05:51:44;;;;;;;8.60;3.75;;;19.90;58.80;;;;;;5039167;28;20519;-48
2022/06/06 05:54:33;;;;;;;4.82;3.20;;;20.00;58.40;;;;;;5041658;28;20044;-52
2022/06/06 05:57:33;;;;;;;5.00;3.25;;;20.00;58.00;;;;;;5042194;28;20057;-50
2022/06/06 06:00:10;;;;;;;5.43;2.90;;;20.00;57.60;;;;;;5041100;28;20052;-49
2022/06/06 06:03:03;;;;;;;5.40;2.70;;;20.00;57.60;;;;;;5039123;28;20052;-50
2022/06/06 06:05:40;;;;;;;3.70;2.90;;;20.00;57.00;;;;;;5039557;28;20057;-51
2022/06/06 06:08:22;;;;;;;4.15;2.75;;;20.00;56.70;;;;;;5041445;28;20055;-50
2022/06/06 06:10:57;;;;;;;3.35;2.65;;;20.00;56.80;;;;;;5040641;28;20040;-49
2022/06/06 06:13:46;;;;;;;4.70;2.67;;;20.00;56.50;;;;;;5042892;28;20057;-51
2022/06/06 06:16:16;;;;;;;2.75;2.10;;;20.00;55.90;;;;;;5040372;28;20412;-51
2022/06/06 06:18:48;;;;;;;3.35;2.10;;;20.00;56.30;;;;;;5041962;28;20531;-49
2022/06/06 06:21:20;;;;;;;3.30;2.03;;;20.00;55.70;;;;;;5039075;28;20497;-47
2022/06/06 06:23:52;;;;;;;6.07;2.17;;;20.00;55.70;;;;;;5036577;28;20053;-46
2022/06/06 06:26:20;;;;;;;5.00;2.30;;;20.00;55.70;;;;;;5042524;28;20539;-48
2022/06/06 06:28:50;;;;;;;2.92;2.03;;;20.00;55.50;;;;;;5041993;28;20048;-48
2022/06/06 06:31:38;;;;;;;1.95;1.75;;;20.00;55.10;;;;;;5037037;28;20416;-50
2022/06/06 06:34:25;;;;;;;2.95;2.00;;;20.00;55.10;;;;;;5041921;28;20057;-47
2022/06/06 06:37:15;;;;;;;2.30;1.83;;;20.00;55.30;;;;;;5040858;28;20057;-47
2022/06/06 06:39:58;;;;;;;3.10;2.03;;;20.00;55.20;;;;;;5040655;28;20045;-47
2022/06/06 06:42:39;;;;;;;4.28;2.20;;;20.00;55.30;;;;;;5038972;28;20055;-47
2022/06/06 06:45:12;;;;;;;2.60;1.77;;;20.00;55.10;;;;;;5039395;28;20060;-50
2022/06/06 06:47:40;;;;;;;3.30;1.90;;;20.00;55.20;;;;;;5041260;28;20064;-47
2022/06/06 06:50:15;;;;;;;2.28;1.70;;;20.10;55.00;;;;;;5040461;28;20053;-48
2022/06/06 06:52:58;;;;;;;2.50;1.80;;;20.10;54.60;;;;;;5040217;28;20056;-49
2022/06/06 06:55:37;;;;;;;2.35;1.63;;;20.10;54.70;;;;;;5038426;28;20052;-48
2022/06/06 06:58:26;;;;;;;2.55;1.88;;;20.10;55.10;;;;;;5038956;28;20063;-46
2022/06/06 07:00:59;;;;;;;2.00;1.40;;;20.10;54.40;;;;;;5033269;28;20051;-48
2022/06/06 07:09:50;;;;;;;2.22;1.15;;;20.10;52.50;;;;;;5042449;28;20060;-46
2022/06/06 07:12:32;;;;;;;2.72;1.20;;;20.20;52.50;;;;;;5034714;28;20045;-49
2022/06/06 07:15:16;;;;;;;2.20;1.20;;;20.10;51.70;;;;;;5036460;28;20056;-46
2022/06/06 07:17:49;;;;;;;2.22;1.20;;;20.10;52.00;;;;;;5039584;28;20083;-45
2022/06/06 07:20:19;;;;;;;2.33;1.13;;;20.20;52.10;;;;;;5039100;28;20056;-48
2022/06/06 07:23:02;;;;;;;3.58;1.27;;;20.20;51.70;;;;;;5040744;28;20504;-46
2022/06/06 07:25:37;;;;;;;1.63;1.20;;;20.20;51.60;;;;;;5041836;28;20049;-46
2022/06/06 07:28:05;;;;;;;3.35;1.27;;;20.10;51.60;;;;;;5022458;28;20557;-46
2022/06/06 07:30:36;;;;;;;6.88;1.80;;;20.10;51.50;;;;;;5039266;28;20489;-47
2022/06/06 07:33:19;;;;;;;2.13;1.20;;;20.20;51.20;;;;;;5038695;28;20406;-46
2022/06/06 07:35:57;;;;;;;1.75;1.17;;;20.20;51.00;;;;;;5038367;28;20401;-47
2022/06/06 07:38:41;;;;;;;1.23;1.00;;;20.20;50.90;;;;;;5039983;28;20052;-48
2022/06/06 07:41:19;;;;;;;;;;;20.20;50.30;;;;;;5039103;28;20040;-48
2022/06/06 07:43:57;;;;;;;0.95;0.85;;;20.30;51.10;;;;;;5038859;28;19928;-47
2022/06/06 07:46:38;;;;;;;1.55;1.00;;;20.30;50.40;;;;;;5039038;28;20053;-49
2022/06/06 07:49:12;;;;;;;1.05;0.82;;;20.30;50.50;;;;;;5039707;28;20064;-46
2022/06/06 07:51:44;;;;;;;2.03;0.93;;;20.40;50.40;;;;;;5039067;28;20068;-49
2022/06/06 07:54:25;;;;;;;1.17;0.90;;;20.40;50.10;;;;;;5038855;28;20405;-48
2022/06/06 07:56:59;;;;;;;2.08;0.80;;;20.40;50.00;;;;;;5040493;28;20496;-51
2022/06/06 07:59:45;;;;;;;1.10;0.80;;;20.50;49.90;;;;;;5039132;28;20048;-47
2022/06/06 08:02:31;;;;;;;1.80;0.82;;;20.50;49.80;;;;;;5039206;28;20504;-47
2022/06/06 08:05:08;;;;;;;3.10;0.80;;;20.50;48.70;;;;;;5036625;28;20435;-47
2022/06/06 08:07:42;;;;;;;1.55;0.90;;;20.60;49.20;;;;;;5041365;28;20049;-49
2022/06/06 08:10:18;;;;;;;2.22;0.82;;;20.70;49.20;;;;;;5043185;28;20056;-50
2022/06/06 08:13:02;;;;;;;2.10;0.80;;;20.70;49.30;;;;;;5041439;28;20057;-46
2022/06/06 08:15:47;;;;;;;0.77;0.75;;;20.80;49.30;;;;;;5042470;28;20049;-46
2022/06/06 08:22:33;;;;;;;1.88;0.63;;;20.90;49.00;;;;;;5056365;28;20048;-46
2022/06/06 08:25:06;;;;;;;2.20;0.70;;;21.00;48.30;;;;;;5041958;28;20049;-48
2022/06/06 08:27:36;;;;;;;4.40;1.00;;;21.10;48.90;;;;;;5042340;28;20420;-47
2022/06/06 08:30:05;;;;;;;1.20;0.80;;;21.10;49.00;;;;;;5043189;28;20499;-46
2022/06/06 08:32:33;;;;;;;0.85;0.50;;;21.10;48.40;;;;;;5040645;28;20067;-46
2022/06/06 08:35:01;;;;;;;2.55;1.20;;;21.20;48.00;;;;;;5039522;28;20564;-48
2022/06/06 08:37:42;;;;;;;1.20;0.70;;;21.20;48.00;;;;;;5043367;28;20496;-46
2022/06/06 08:40:38;;;;;;;1.67;0.90;;;21.20;48.10;;;;;;5044261;28;20065;-51
2022/06/06 08:43:18;;;;;;;1.90;0.75;;;21.30;48.20;;;;;;5041389;28;20053;-47
2022/06/06 08:45:52;;;;;;;2.63;0.93;;;21.40;47.60;;;;;;5038512;28;20053;-47
2022/06/06 08:48:35;;;;;;;;;;;21.50;47.40;;;;;;5043403;28;20057;-54
2022/06/06 08:51:04;;;;;;;1.33;0.70;;;21.50;48.10;;;;;;5037206;28;19920;-48
2022/06/06 08:53:56;;;;;;;1.45;0.88;;;21.60;47.70;;;;;;5039461;28;20411;-50
2022/06/06 08:56:56;;;;;;;2.70;0.80;;;21.70;47.20;;;;;;5042879;28;20060;-47
2022/06/06 09:00:01;;;;;;;1.15;0.68;;;21.80;47.30;;;;;;5024743;28;20054;-47
2022/06/06 09:03:04;;;;;;;0.75;0.75;;;21.90;47.00;;;;;;5041253;28;20065;-48
2022/06/06 09:06:07;;;;;;;1.42;0.60;;;22.00;47.60;;;;;;5040882;28;20053;-47
2022/06/06 09:09:00;;;;;;;6.57;3.17;;;22.10;47.20;;;;;;5043183;28;20064;-47
2022/06/06 09:12:06;;;;;;;1.80;1.17;;;22.10;46.30;;;;;;5038732;28;20045;-46
2022/06/06 09:15:11;;;;;;;1.15;0.98;;;22.20;46.40;;;;;;5039027;28;20496;-50
2022/06/06 09:18:12;;;;;;;3.22;1.08;;;22.30;46.40;;;;;;5036467;28;20049;-46
2022/06/06 09:21:03;;;;;;;1.60;0.57;;;22.40;45.60;;;;;;5006889;28;20049;-46
2022/06/06 09:24:09;;;;;;;2.08;0.90;;;22.40;45.50;;;;;;5041633;28;20064;-48
2022/06/06 09:26:55;;;;;;;1.23;0.63;;;22.50;45.70;;;;;;5007420;28;20416;-47
2022/06/06 09:29:57;;;;;;;0.95;0.70;;;22.60;45.80;;;;;;5039399;28;20057;-48
2022/06/06 09:33:07;;;;;;;0.98;0.70;;;22.70;45.30;;;;;;5022803;28;20048;-55
2022/06/06 09:35:41;;;;;;;1.50;0.60;;;22.70;44.50;;;;;;5038551;28;20472;-57
2022/06/06 09:38:19;;;;;;;;;;;22.80;44.50;;;;;;5040987;28;20607;-58
2022/06/06 09:41:00;;;;;;;1.83;0.90;;;22.90;44.60;;;;;;5039139;28;19924;-57
2022/06/06 09:43:38;;;;;;;1.33;0.75;;;22.90;43.20;;;;;;5039518;28;20500;-54
2022/06/06 09:46:34;;;;;;;0.88;0.75;;;22.80;43.90;;;;;;5036524;28;20060;-57
2022/06/06 09:49:41;;;;;;;1.40;0.73;;;22.70;42.90;;;;;;5040720;28;20045;-55
2022/06/06 09:52:50;;;;;;;4.50;0.63;;;22.70;44.60;;;;;;5038378;28;20040;-57
2022/06/06 09:59:05;;;;;;;1.02;0.88;;;22.50;43.80;;;;;;5046122;28;20420;-58
2022/06/06 10:02:07;;;;;;;4.95;1.20;;;22.30;44.00;;;;;;5026131;28;20481;-49
2022/06/06 10:05:10;;;;;;;9.73;1.30;;;22.20;44.00;;;;;;5041202;28;20053;-53
2022/06/06 10:08:11;;;;;;;2.03;0.98;;;22.00;45.50;;;;;;5033356;28;20911;-53
2022/06/06 10:10:54;;;;;;;3.92;1.70;;;21.90;46.00;;;;;;5036521;28;20524;-56
2022/06/06 10:13:35;;;;;;;4.05;1.40;;;21.90;46.20;;;;;;5037184;28;20056;-57
2022/06/06 10:16:18;;;;;;;3.72;0.90;;;21.80;46.60;;;;;;5036138;28;20064;-54
2022/06/06 10:19:10;;;;;;;1.48;0.70;;;21.80;47.70;;;;;;5038821;28;20060;-48
2022/06/06 10:22:01;;;;;;;2.28;0.70;;;21.80;47.10;;;;;;5039674;28;20041;-47
2022/06/06 10:24:59;;;;;;;1.08;0.65;;;21.80;46.40;;;;;;5037541;28;20060;-46
2022/06/06 10:27:43;;;;;;;0.98;0.85;;;21.90;46.40;;;;;;5034911;28;20073;-47
2022/06/06 10:30:17;;;;;;;1.30;0.80;;;21.90;46.50;;;;;;5040431;28;20056;-51
2022/06/06 10:33:11;;;;;;;2.20;1.00;;;22.00;46.60;;;;;;5038160;28;20072;-46
2022/06/06 10:35:54;;;;;;;1.40;0.80;;;22.10;46.40;;;;;;4994756;28;20064;-46
2022/06/06 10:38:46;;;;;;;1.17;0.88;;;22.20;46.20;;;;;;5041532;28;20056;-47
2022/06/06 10:41:32;;;;;;;1.00;0.70;;;22.20;46.30;;;;;;5030547;28;20052;-51
2022/06/06 10:44:35;;;;;;;0.93;0.52;;;22.40;45.90;;;;;;5041189;28;20500;-55
2022/06/06 10:47:17;;;;;;;0.75;0.65;;;22.50;46.60;;;;;;5034646;28;20496;-46
2022/06/06 10:49:52;;;;;;;1.73;0.80;;;22.50;45.90;;;;;;5036584;28;20439;-48
2022/06/06 10:53:03;;;;;;;3.63;0.90;;;22.50;46.10;;;;;;5040781;28;20484;-49
2022/06/06 10:56:01;;;;;;;1.83;0.80;;;22.60;46.10;;;;;;5041766;28;20057;-47
2022/06/06 10:59:23;;;;;;;2.65;0.70;;;22.60;47.40;;;;;;5041140;28;20084;-56
2022/06/06 11:02:23;;;;;;;1.65;0.88;;;22.60;46.10;;;;;;4999094;28;20060;-56
2022/06/06 11:05:18;;;;;;;1.42;0.80;;;22.60;45.10;;;;;;5012025;28;20504;-55
2022/06/06 11:08:23;;;;;;;3.03;1.42;;;22.60;47.40;;;;;;5040727;28;20060;-48
2022/06/06 11:11:24;;;;;;;5.90;1.00;;;22.50;47.10;;;;;;5021997;28;20515;-56
2022/06/06 11:14:02;;;;;;;3.38;0.82;;;22.40;46.50;;;;;;5039607;28;20044;-50
2022/06/06 11:17:11;;;;;;;4.55;1.30;;;22.20;46.90;;;;;;5040526;28;20060;-49
2022/06/06 11:20:08;;;;;;;17.08;2.40;;;21.90;48.20;;;;;;5040280;28;20575;-45
2022/06/06 11:22:39;;;;;;;7.28;1.52;;;21.60;49.70;;;;;;5039388;28;20049;-47
2022/06/06 11:25:11;;;;;;;3.47;1.15;;;21.40;50.20;;;;;;5041946;28;20057;-49
2022/06/06 11:28:11;;;;;;;5.68;1.08;;;21.20;50.30;;;;;;5042131;28;20057;-47
2022/06/06 11:31:01;;;;;;;8.30;1.38;;;21.00;50.60;;;;;;5039336;28;20053;-48
2022/06/06 11:34:05;;;;;;;2.72;1.00;;;20.80;51.80;;;;;;5039109;28;20049;-50
2022/06/06 11:36:56;;;;;;;1.40;0.98;;;20.70;52.80;;;;;;5038174;28;20053;-48
2022/06/06 11:40:07;;;;;;;2.03;1.27;;;20.70;53.50;;;;;;4995549;28;20057;-52
2022/06/06 11:43:09;;;;;;;2.47;1.10;;;20.70;53.90;;;;;;5028483;28;20044;-49
2022/06/06 11:46:15;;;;;;;1.90;1.20;;;20.70;54.30;;;;;;5022398;28;20061;-51
2022/06/06 11:49:07;;;;;;;2.60;0.90;;;20.80;54.40;;;;;;4966889;28;20054;-51
2022/06/06 11:52:06;;;;;;;1.50;1.00;;;20.80;54.90;;;;;;5038304;28;20057;-51
2022/06/06 11:54:57;;;;;;;1.50;0.90;;;20.90;55.50;;;;;;5037259;28;20504;-49
2022/06/06 11:58:04;;;;;;;0.80;0.40;;;20.90;56.00;;;;;;5039532;28;20068;-55
2022/06/06 12:00:43;;;;;;;0.90;0.52;;;20.90;52.90;;;;;;5038108;28;20057;-49
2022/06/06 12:04:08;;;;;;;1.08;0.77;;;20.90;54.00;;;;;;5042691;28;20057;-48
2022/06/06 12:07:20;;;;;;;1.25;0.80;;;20.90;54.60;;;;;;5042966;28;20061;-50
2022/06/06 12:10:01;;;;;;;3.00;0.85;;;20.90;54.20;;;;;;5024177;28;20061;-46
2022/06/06 12:13:25;;;;;;;1.08;0.80;;;20.90;54.50;;;;;;5042923;28;20052;-46
2022/06/06 12:16:20;;;;;;;2.10;0.90;;;20.90;54.40;;;;;;4920250;28;20054;-53
2022/06/06 12:18:57;;;;;;;;;;;20.90;54.80;;;;;;5018223;28;20060;-51
2022/06/06 12:21:57;;;;;;;3.22;1.10;;;21.00;54.70;;;;;;5020873;28;19936;-48
2022/06/06 12:24:56;;;;;;;2.10;1.00;;;21.00;55.20;;;;;;5020951;28;20741;-54
2022/06/06 12:27:31;;;;;;;2.22;1.17;;;21.00;54.90;;;;;;5024921;28;20049;-50
2022/06/06 12:30:26;;;;;;;2.72;1.08;;;21.10;54.90;;;;;;5025477;28;20053;-46
2022/06/06 12:33:02;;;;;;;3.28;1.10;;;21.10;54.60;;;;;;5030402;28;20071;-50
2022/06/06 12:35:43;;;;;;;3.63;1.20;;;21.10;54.20;;;;;;5025103;28;20060;-47
2022/06/06 12:38:30;;;;;;;3.00;1.27;;;21.20;54.40;;;;;;5033332;28;20052;-47
2022/06/06 12:41:09;;;;;;;1.10;0.98;;;21.20;54.00;;;;;;5033014;28;20408;-48
2022/06/06 12:43:52;;;;;;;1.65;1.10;;;21.30;54.70;;;;;;5036226;28;20052;-50
2022/06/06 12:46:44;;;;;;;3.90;1.00;;;21.30;54.90;;;;;;5030468;28;20056;-52
2022/06/06 12:49:35;;;;;;;6.72;1.10;;;21.40;54.40;;;;;;5040020;28;20076;-47
2022/06/06 12:52:24;;;;;;;3.25;1.30;;;21.50;54.30;;;;;;5042438;28;20055;-47
2022/06/06 12:58:12;;;;;;;3.20;1.05;;;21.70;54.30;;;;;;5041198;28;20048;-48
2022/06/06 13:03:44;;;;;;;2.00;0.95;;;21.90;54.50;;;;;;5043597;28;20056;-47
2022/06/06 13:06:24;;;;;;;0.98;0.90;;;22.00;53.90;;;;;;5041691;28;20619;-47
2022/06/06 13:09:08;;;;;;;2.38;1.10;;;22.10;53.60;;;;;;5039906;28;20580;-48
2022/06/06 13:11:48;;;;;;;1.10;1.00;;;22.30;53.80;;;;;;5039528;28;20052;-49
2022/06/06 13:14:47;;;;;;;1.13;0.98;;;22.40;53.10;;;;;;5035510;28;20048;-50
2022/06/06 13:17:26;;;;;;;1.20;0.85;;;22.50;52.70;;;;;;5041585;28;20064;-49
2022/06/06 13:20:05;;;;;;;2.10;0.90;;;22.60;53.00;;;;;;5042506;28;20056;-48
2022/06/06 13:23:02;;;;;;;2.15;1.08;;;22.70;53.20;;;;;;5039493;28;20400;-49
2022/06/06 13:25:45;;;;;;;1.15;1.05;;;22.90;53.30;;;;;;5043594;28;20052;-49
2022/06/06 13:28:18;;;;;;;1.70;1.02;;;22.90;52.90;;;;;;5038892;28;20053;-50
2022/06/06 13:31:00;;;;;;;2.55;1.23;;;23.00;52.90;;;;;;5038406;28;20501;-48
2022/06/06 13:33:42;;;;;;;1.20;0.77;;;23.10;52.80;;;;;;5043236;28;20049;-49
2022/06/06 13:36:24;;;;;;;1.27;1.10;;;23.10;52.10;;;;;;5041445;28;20404;-48
2022/06/06 13:39:05;;;;;;;1.52;1.00;;;23.20;52.40;;;;;;5040736;28;20056;-47
2022/06/06 13:41:47;;;;;;;1.23;0.95;;;23.20;51.60;;;;;;5041679;28;20075;-50
2022/06/06 13:44:38;;;;;;;3.47;0.90;;;23.30;51.70;;;;;;5037761;28;20524;-50
2022/06/06 13:47:14;;;;;;;1.77;0.93;;;23.30;51.70;;;;;;5039268;28;20060;-51
2022/06/06 13:49:58;;;;;;;1.27;1.15;;;23.40;52.30;;;;;;5042164;28;20060;-49
2022/06/06 13:52:43;;;;;;;1.20;1.10;;;23.40;51.80;;;;;;5033442;28;20512;-47
2022/06/06 13:55:31;;;;;;;;;;;23.40;51.80;;;;;;5039377;28;20048;-50
2022/06/06 13:58:22;;;;;;;1.58;1.20;;;23.40;51.80;;;;;;5024577;28;20281;-49
2022/06/06 14:01:05;;;;;;;2.65;1.20;;;23.40;51.70;;;;;;5028581;28;20068;-49
2022/06/06 14:04:00;;;;;;;2.40;1.23;;;23.40;51.20;;;;;;5035194;28;20492;-46
2022/06/06 14:06:44;;;;;;;8.00;1.38;;;23.50;50.80;;;;;;5033141;28;20057;-47
2022/06/06 14:09:16;;;;;;;3.83;1.17;;;23.40;50.70;;;;;;5035880;28;20340;-49
2022/06/06 14:12:03;;;;;;;2.13;1.05;;;23.50;50.70;;;;;;5038097;28;20065;-48
2022/06/06 14:14:35;;;;;;;1.83;1.30;;;23.50;50.30;;;;;;5041190;28;20424;-47
2022/06/06 14:17:05;;;;;;;2.17;1.13;;;23.50;50.50;;;;;;5039951;28;20660;-50
2022/06/06 14:19:36;;;;;;;1.30;1.20;;;23.60;50.50;;;;;;5039182;28;20546;-49
2022/06/06 14:22:07;;;;;;;4.05;1.25;;;23.60;50.00;;;;;;5036189;28;20056;-47
2022/06/06 14:24:37;;;;;;;2.13;1.40;;;23.60;49.60;;;;;;5036900;28;20049;-48
2022/06/06 14:27:08;;;;;;;3.00;1.10;;;23.60;49.40;;;;;;5038639;28;20052;-47
2022/06/06 14:29:39;;;;;;;1.38;1.00;;;23.60;48.90;;;;;;5038919;28;20527;-50
2022/06/06 14:32:21;;;;;;;1.50;1.10;;;23.60;48.40;;;;;;5034697;28;20425;-49
2022/06/06 14:34:51;;;;;;;3.63;1.30;;;23.60;48.70;;;;;;5041388;28;20419;-47
2022/06/06 14:37:20;;;;;;;2.05;1.30;;;23.60;48.60;;;;;;5037273;28;20048;-47